Time;durP1;ratioP1;P1;durP2;ratioP2;P2;SDS_P1;SDS_P2;PMS_P1;PMS_P2;Temp;Humidity;BMP_temperature;BMP_pressure;BME280_temperature;BME280_humidity;BME280_pressure;Samples;Min_cycle;Max_cycle;Signal;HPM_P1;HPM_P2
2023/07/26 00:02:18;;;;;;;5.55;2.83;;;;;;;16.39;69.30;101047.78;5096246;28;20024;-57
2023/07/26 00:04:44;;;;;;;5.53;3.08;;;;;;;16.39;68.69;101053.13;5096354;28;20032;-57
2023/07/26 00:07:10;;;;;;;9.75;2.88;;;;;;;16.47;68.92;101051.25;5096238;28;20148;-57
2023/07/26 00:09:35;;;;;;;7.95;3.08;;;;;;;16.49;68.66;101054.81;5096003;28;20121;-57
2023/07/26 00:12:01;;;;;;;4.70;3.17;;;;;;;16.42;69.06;101050.44;5096223;28;20055;-58
2023/07/26 00:14:26;;;;;;;5.50;3.30;;;;;;;16.39;69.44;101056.66;5096259;28;20465;-57
2023/07/26 00:16:51;;;;;;;15.25;3.30;;;;;;;16.31;69.44;101052.31;5096149;28;20040;-57
2023/07/26 00:19:20;;;;;;;6.90;3.08;;;;;;;16.34;69.36;101049.63;5095774;28;20077;-57
2023/07/26 00:21:48;;;;;;;7.07;3.20;;;;;;;16.40;69.44;101044.22;5078553;28;20039;-57
2023/07/26 00:24:14;;;;;;;7.50;3.30;;;;;;;16.46;68.82;101052.16;5096084;28;20020;-57
2023/07/26 00:26:40;;;;;;;6.43;3.17;;;;;;;16.47;68.87;101049.47;5095699;28;20039;-57
2023/07/26 00:29:05;;;;;;;9.40;3.72;;;;;;;16.35;69.02;101041.59;5095729;28;20024;-57
2023/07/26 00:31:31;;;;;;;7.13;3.30;;;;;;;16.33;69.41;101045.19;5095639;28;20508;-57
2023/07/26 00:33:56;;;;;;;6.30;3.13;;;;;;;16.35;68.73;101046.91;5095608;28;20095;-58
2023/07/26 00:36:22;;;;;;;5.25;3.47;;;;;;;16.43;68.90;101046.84;5095485;28;20106;-57
2023/07/26 00:38:49;;;;;;;7.18;3.40;;;;;;;16.37;69.07;101041.59;5095929;28;20081;-57
2023/07/26 00:41:14;;;;;;;6.25;3.50;;;;;;;16.28;69.21;101032.78;5095718;28;20032;-56
2023/07/26 00:43:40;;;;;;;4.20;3.17;;;;;;;16.22;69.39;101037.28;5095374;28;20469;-57
2023/07/26 00:46:06;;;;;;;5.35;3.40;;;;;;;16.11;69.68;101033.84;5095401;28;20032;-57
2023/07/26 00:48:33;;;;;;;4.95;3.22;;;;;;;16.15;69.45;101036.47;5095421;28;20070;-57
2023/07/26 00:51:00;;;;;;;4.63;3.10;;;;;;;16.17;69.47;101040.00;5095352;28;20443;-56
2023/07/26 00:53:26;;;;;;;4.80;3.38;;;;;;;16.08;69.36;101044.53;5093983;28;20063;-57
2023/07/26 00:55:53;;;;;;;6.70;3.38;;;;;;;16.05;69.60;101044.53;5095158;28;20055;-57
2023/07/26 00:58:20;;;;;;;5.82;3.40;;;;;;;16.06;69.74;101036.56;5095188;28;20020;-57
2023/07/26 01:00:46;;;;;;;6.45;3.50;;;;;;;15.94;70.51;101039.31;5095391;28;20020;-58
2023/07/26 01:03:12;;;;;;;7.32;3.70;;;;;;;15.85;70.87;101034.06;5076938;28;20462;-56
2023/07/26 01:05:56;;;;;;;5.32;3.53;;;;;;;15.78;70.82;101033.22;5094926;28;20120;-57
2023/07/26 01:08:46;;;;;;;6.90;3.40;;;;;;;15.77;71.11;101028.78;5095017;28;20534;-58
2023/07/26 01:11:26;;;;;;;7.95;3.65;;;;;;;15.78;71.07;101034.09;5095139;28;20028;-56
2023/07/26 01:14:05;;;;;;;5.88;3.70;;;;;;;15.75;71.17;101028.78;5094997;28;20103;-57
2023/07/26 01:16:31;;;;;;;9.48;3.50;;;;;;;15.70;71.35;101033.25;5076587;28;20031;-57
2023/07/26 01:18:56;;;;;;;6.03;3.80;;;;;;;15.74;71.75;101037.69;5094705;28;20034;-57
2023/07/26 01:21:22;;;;;;;6.38;3.72;;;;;;;15.75;71.18;101044.75;5076769;28;20035;-58
2023/07/26 01:23:47;;;;;;;5.70;3.72;;;;;;;15.72;71.71;101043.94;5094679;28;20028;-57
2023/07/26 01:26:12;;;;;;;6.57;3.45;;;;;;;15.64;71.81;101037.75;5094432;28;20024;-58
2023/07/26 01:28:38;;;;;;;5.72;3.80;;;;;;;15.61;72.47;101043.97;5094565;28;20024;-58
2023/07/26 01:31:04;;;;;;;6.68;3.92;;;;;;;15.66;72.03;101043.97;5094570;28;20103;-57
2023/07/26 01:33:34;;;;;;;6.72;3.70;;;;;;;15.65;72.46;101045.75;5094468;28;20020;-57
2023/07/26 01:35:59;;;;;;;6.65;3.67;;;;;;;15.65;72.19;101045.75;5094213;28;20020;-57
2023/07/26 01:38:25;;;;;;;9.48;4.15;;;;;;;15.59;72.59;101044.84;5094436;28;20042;-57
2023/07/26 01:40:51;;;;;;;6.60;4.07;;;;;;;15.56;72.45;101048.44;5094199;28;20024;-57
2023/07/26 01:43:17;;;;;;;8.25;3.72;;;;;;;15.62;72.88;101036.84;5094324;28;20024;-58
2023/07/26 01:45:43;;;;;;;5.60;3.97;;;;;;;15.55;72.99;101037.81;5094474;28;20035;-58
2023/07/26 01:48:08;;;;;;;5.95;4.10;;;;;;;15.53;73.08;101044.00;5094422;28;20432;-58
2023/07/26 01:50:33;;;;;;;7.32;3.90;;;;;;;15.49;73.16;101041.38;5094008;28;20438;-57
2023/07/26 01:52:59;;;;;;;10.23;4.00;;;;;;;15.45;73.89;101039.63;5094054;28;20385;-57
2023/07/26 01:55:25;;;;;;;5.47;3.83;;;;;;;15.36;73.90;101039.69;5094258;28;20024;-58
2023/07/26 01:57:50;;;;;;;7.07;4.43;;;;;;;15.31;74.04;101036.16;5093939;28;20024;-57
2023/07/26 02:00:16;;;;;;;7.07;4.25;;;;;;;15.27;74.36;101030.84;5094194;28;20427;-57
2023/07/26 02:02:41;;;;;;;9.25;4.10;;;;;;;15.27;74.27;101036.16;5093938;28;20033;-57
2023/07/26 02:05:07;;;;;;;5.88;4.25;;;;;;;15.31;74.10;101028.19;5093520;28;20024;-57
2023/07/26 02:07:32;;;;;;;5.82;3.90;;;;;;;15.26;74.16;101042.41;5093902;28;20031;-57
2023/07/26 02:09:58;;;;;;;5.43;4.15;;;;;;;15.31;74.02;101037.03;5093731;28;20027;-58
2023/07/26 02:12:23;;;;;;;4.93;3.85;;;;;;;15.31;73.90;101036.16;5093756;28;20146;-57
2023/07/26 02:14:48;;;;;;;9.65;3.95;;;;;;;15.30;74.18;101032.63;5093663;28;20032;-56
2023/07/26 02:17:14;;;;;;;6.78;3.90;;;;;;;15.42;74.71;101040.53;5093595;28;20031;-57
2023/07/26 02:19:39;;;;;;;6.95;4.10;;;;;;;15.46;74.36;101039.63;5093717;28;20036;-57
2023/07/26 02:22:05;;;;;;;5.60;3.72;;;;;;;15.49;74.79;101047.56;5093713;28;20028;-57
2023/07/26 02:24:30;;;;;;;6.70;3.97;;;;;;;15.50;74.77;101040.47;5093624;28;20036;-58
2023/07/26 02:26:55;;;;;;;5.20;4.22;;;;;;;15.46;75.40;101030.72;5093481;28;20028;-58
2023/07/26 02:29:21;;;;;;;6.63;4.18;;;;;;;15.40;75.90;101036.97;5093513;28;20032;-57
2023/07/26 02:31:47;;;;;;;5.75;3.92;;;;;;;15.38;76.31;101037.91;5093477;28;20024;-58
2023/07/26 02:34:12;;;;;;;6.32;4.20;;;;;;;15.31;76.48;101033.50;5093418;28;20073;-58
2023/07/26 02:36:37;;;;;;;9.45;4.47;;;;;;;15.35;76.35;101024.59;5075045;28;20058;-57
2023/07/26 02:39:03;;;;;;;6.30;4.05;;;;;;;15.28;76.69;101032.59;5093283;28;20032;-57
2023/07/26 02:41:29;;;;;;;6.50;4.43;;;;;;;15.24;76.73;101030.84;5093706;28;20028;-57
2023/07/26 02:43:54;;;;;;;8.30;4.00;;;;;;;15.26;77.12;101025.53;5093263;28;20383;-57
2023/07/26 02:46:20;;;;;;;6.60;4.28;;;;;;;15.27;77.04;101029.97;5093472;28;20040;-57
2023/07/26 02:48:45;;;;;;;6.85;4.15;;;;;;;15.29;77.41;101028.19;5093155;28;20025;-57
2023/07/26 02:51:10;;;;;;;5.45;4.20;;;;;;;15.35;77.24;101029.94;5093449;28;20052;-58
2023/07/26 02:53:36;;;;;;;6.50;4.20;;;;;;;15.39;76.51;101021.03;5093222;28;20028;-57
2023/07/26 02:56:01;;;;;;;7.28;4.50;;;;;;;15.34;77.30;101026.38;5075044;28;20039;-58
2023/07/26 02:58:26;;;;;;;8.35;4.20;;;;;;;15.28;77.89;101024.63;5093095;28;20031;-58
2023/07/26 03:00:52;;;;;;;7.68;4.80;;;;;;;15.28;78.28;101032.59;5093175;28;20060;-58
2023/07/26 03:03:18;;;;;;;8.00;4.65;;;;;;;15.34;78.09;101041.47;5093153;28;20028;-59
2023/07/26 03:05:43;;;;;;;5.72;4.13;;;;;;;15.37;78.49;101049.44;5093069;28;20482;-58
2023/07/26 03:08:09;;;;;;;7.55;4.47;;;;;;;15.41;77.86;101051.19;5093085;28;20038;-59
2023/07/26 03:10:34;;;;;;;5.75;3.97;;;;;;;15.46;78.24;101052.94;5093264;28;20043;-63
2023/07/26 03:13:00;;;;;;;8.30;4.60;;;;;;;15.44;77.95;101059.16;5074863;28;20028;-59
2023/07/26 03:15:25;;;;;;;5.53;4.20;;;;;;;15.42;77.87;101064.50;5093230;28;20030;-58
2023/07/26 03:17:50;;;;;;;7.82;4.32;;;;;;;15.42;78.04;101071.63;5097081;28;20028;-58
2023/07/26 03:20:16;;;;;;;6.25;4.03;;;;;;;15.33;77.63;101067.22;5096975;28;20122;-59
2023/07/26 03:22:41;;;;;;;6.03;3.97;;;;;;;15.27;78.46;101054.81;5096969;28;20024;-61
2023/07/26 03:25:07;;;;;;;6.93;4.00;;;;;;;15.27;78.88;101049.47;5097070;28;20028;-62
2023/07/26 03:27:32;;;;;;;6.63;4.05;;;;;;;15.18;79.58;101044.22;5096780;28;20454;-60
2023/07/26 03:29:58;;;;;;;7.05;4.15;;;;;;;15.12;80.11;101048.69;5096857;28;20032;-60
2023/07/26 03:32:23;;;;;;;7.70;4.30;;;;;;;15.00;80.52;101047.84;5096864;28;20431;-60
2023/07/26 03:34:48;;;;;;;5.93;4.20;;;;;;;15.05;80.91;101055.81;5096749;28;20474;-60
2023/07/26 03:37:14;;;;;;;9.52;4.50;;;;;;;15.00;81.54;101047.84;5096588;28;20551;-60
2023/07/26 03:39:39;;;;;;;7.30;3.97;;;;;;;14.93;81.34;101047.88;5096748;28;20075;-60
2023/07/26 03:42:05;;;;;;;6.68;4.22;;;;;;;14.84;81.98;101050.56;5096643;28;20020;-59
2023/07/26 03:44:30;;;;;;;5.75;4.32;;;;;;;14.78;82.86;101059.47;5096638;28;20028;-60
2023/07/26 03:46:56;;;;;;;6.07;4.40;;;;;;;14.66;82.64;101049.75;5096526;28;20063;-59
2023/07/26 03:49:21;;;;;;;7.20;4.80;;;;;;;14.59;83.48;101047.97;5096336;28;20028;-60
2023/07/26 03:51:47;;;;;;;7.63;4.70;;;;;;;14.53;83.74;101050.66;5096579;28;20481;-60
2023/07/26 03:54:12;;;;;;;6.63;4.40;;;;;;;14.49;83.91;101057.75;5096081;28;20040;-60
2023/07/26 03:56:37;;;;;;;9.82;4.97;;;;;;;14.43;84.44;101048.84;5095852;28;20154;-59
2023/07/26 03:59:03;;;;;;;7.07;4.47;;;;;;;14.29;85.17;101056.84;5095954;28;20024;-59
2023/07/26 04:01:28;;;;;;;8.00;4.75;;;;;;;14.23;84.82;101063.06;5096142;28;20025;-59
2023/07/26 04:03:54;;;;;;;6.18;4.55;;;;;;;14.25;84.75;101057.75;5095756;28;20381;-60
2023/07/26 04:06:19;;;;;;;7.13;4.50;;;;;;;14.17;84.58;101044.47;5095765;28;20024;-60
2023/07/26 04:08:44;;;;;;;6.70;4.70;;;;;;;14.19;84.88;101057.75;5095828;28;20028;-60
2023/07/26 04:11:11;;;;;;;8.25;5.00;;;;;;;14.18;85.36;101059.53;5095980;28;20028;-59
2023/07/26 04:13:37;;;;;;;5.22;4.10;;;;;;;14.16;85.78;101060.41;5095738;28;20024;-60
2023/07/26 04:16:20;;;;;;;6.72;4.55;;;;;;;14.11;85.40;101059.53;5095881;28;20028;-59
2023/07/26 04:18:46;;;;;;;7.43;4.40;;;;;;;14.07;85.00;101050.69;5095431;28;20031;-59
2023/07/26 04:21:17;;;;;;;5.07;4.22;;;;;;;14.08;85.29;101054.22;5095809;28;20032;-60
2023/07/26 04:23:43;;;;;;;7.68;4.65;;;;;;;13.96;85.94;101048.03;5095761;28;20043;-58
2023/07/26 04:26:09;;;;;;;5.10;4.22;;;;;;;13.86;86.14;101059.53;5095478;28;20111;-59
2023/07/26 04:28:34;;;;;;;5.50;4.35;;;;;;;13.78;87.23;101059.50;5095289;28;20090;-59
2023/07/26 04:31:00;;;;;;;6.10;4.00;;;;;;;13.72;87.28;101053.31;5095615;28;20032;-60
2023/07/26 04:33:26;;;;;;;6.53;4.22;;;;;;;13.74;87.37;101059.50;5095273;28;20481;-59
2023/07/26 04:35:51;;;;;;;7.78;4.20;;;;;;;13.72;87.39;101059.50;5095332;28;20031;-59
2023/07/26 04:38:19;;;;;;;6.40;3.97;;;;;;;13.75;87.78;101051.56;5095102;28;20136;-60
2023/07/26 04:40:47;;;;;;;8.55;5.10;;;;;;;13.75;87.50;101061.31;5095425;28;20027;-60
2023/07/26 04:43:16;;;;;;;6.53;4.80;;;;;;;13.77;87.37;101056.88;5095132;28;20486;-59
2023/07/26 04:45:41;;;;;;;6.07;4.60;;;;;;;13.87;87.23;101058.63;5095097;28;20138;-60
2023/07/26 04:48:07;;;;;;;6.82;4.43;;;;;;;13.99;87.05;101063.94;5094923;28;20211;-58
2023/07/26 04:50:32;;;;;;;6.07;4.38;;;;;;;14.04;86.69;101067.50;5094740;28;20032;-59
2023/07/26 04:52:57;;;;;;;7.45;4.65;;;;;;;14.09;86.10;101064.88;5095180;28;20020;-60
2023/07/26 04:55:23;;;;;;;6.78;4.78;;;;;;;14.17;86.24;101068.38;5076751;28;20482;-59
2023/07/26 04:57:48;;;;;;;7.57;4.68;;;;;;;14.18;86.48;101062.19;5094803;28;20016;-59
2023/07/26 05:00:14;;;;;;;7.15;4.65;;;;;;;14.24;86.73;101064.84;5094869;28;20032;-60
2023/07/26 05:02:40;;;;;;;10.80;5.13;;;;;;;14.25;87.14;101058.63;5094708;28;20028;-59
2023/07/26 05:05:06;;;;;;;9.02;5.38;;;;;;;14.27;87.47;101053.34;5094646;28;20032;-59
2023/07/26 05:07:31;;;;;;;7.70;5.10;;;;;;;14.34;87.45;101056.84;5094853;28;20031;-60
2023/07/26 05:09:58;;;;;;;8.48;5.05;;;;;;;14.43;87.52;101056.84;5094710;28;20497;-59
2023/07/26 05:12:24;;;;;;;9.55;5.22;;;;;;;14.47;87.04;101059.50;5094333;28;20080;-60
2023/07/26 05:14:49;;;;;;;8.63;5.40;;;;;;;14.61;86.87;101059.50;5094388;28;20103;-60
2023/07/26 05:17:14;;;;;;;9.02;5.38;;;;;;;14.69;86.37;101054.19;5094521;28;20125;-59
2023/07/26 05:19:40;;;;;;;8.70;5.57;;;;;;;14.78;86.48;101057.69;5094425;28;20025;-59
2023/07/26 05:22:05;;;;;;;10.40;5.78;;;;;;;14.86;86.34;101054.09;5094270;28;20074;-59
2023/07/26 05:24:31;;;;;;;10.25;5.68;;;;;;;14.90;85.79;101062.09;5093522;28;20043;-59
2023/07/26 05:26:58;;;;;;;9.30;5.90;;;;;;;14.99;85.70;101064.72;5094024;28;20492;-60
2023/07/26 05:29:23;;;;;;;7.50;5.32;;;;;;;14.99;85.55;101062.06;5094154;28;20035;-59
2023/07/26 05:31:48;;;;;;;10.02;5.47;;;;;;;15.04;85.59;101067.34;5094226;28;20020;-59
2023/07/26 05:34:15;;;;;;;10.07;5.28;;;;;;;15.09;86.35;101062.00;5094039;28;20493;-59
2023/07/26 05:36:41;;;;;;;8.63;5.60;;;;;;;15.10;86.15;101062.00;5093948;28;20052;-59
2023/07/26 05:39:06;;;;;;;9.85;5.85;;;;;;;15.15;86.08;101059.31;5093325;28;20034;-59
2023/07/26 05:41:31;;;;;;;8.88;5.97;;;;;;;15.18;86.66;101065.50;5093770;28;20042;-59
2023/07/26 05:43:59;;;;;;;8.90;5.75;;;;;;;15.19;87.03;101063.72;5093945;28;20062;-59
2023/07/26 05:46:25;;;;;;;12.57;6.10;;;;;;;15.32;86.50;101059.22;5093753;28;20032;-59
2023/07/26 05:48:50;;;;;;;8.18;5.70;;;;;;;15.55;86.39;101061.78;5093704;28;20026;-59
2023/07/26 05:51:16;;;;;;;9.43;5.80;;;;;;;15.74;85.94;101059.00;5094020;28;20077;-60
2023/07/26 05:53:41;;;;;;;11.30;5.97;;;;;;;15.85;84.69;101066.94;5093995;28;20028;-59
2023/07/26 05:56:08;;;;;;;13.02;6.13;;;;;;;15.91;84.97;101064.19;5093595;28;20167;-58
2023/07/26 05:58:33;;;;;;;9.57;5.72;;;;;;;15.98;84.59;101054.38;5093824;28;20023;-59
2023/07/26 06:00:58;;;;;;;10.35;5.75;;;;;;;16.01;84.05;101060.56;5093635;28;20028;-59
2023/07/26 06:03:24;;;;;;;9.65;5.70;;;;;;;16.02;84.12;101069.47;5093518;28;20069;-59
2023/07/26 06:05:50;;;;;;;11.20;5.88;;;;;;;16.05;85.05;101071.19;5093734;28;20107;-59
2023/07/26 06:08:15;;;;;;;10.27;6.07;;;;;;;15.97;84.15;101080.16;5093553;28;20385;-58
2023/07/26 06:10:41;;;;;;;9.73;6.05;;;;;;;15.88;84.15;101077.53;5093461;28;20036;-59
2023/07/26 06:13:12;;;;;;;10.85;6.22;;;;;;;15.93;85.91;101085.50;5093372;28;20089;-60
2023/07/26 06:15:38;;;;;;;13.38;6.53;;;;;;;16.01;85.79;101089.00;5093292;28;20028;-59
2023/07/26 06:18:04;;;;;;;10.18;6.60;;;;;;;16.05;84.77;101089.84;5093288;28;20067;-59
2023/07/26 06:20:29;;;;;;;10.43;6.30;;;;;;;16.01;84.85;101084.53;5093358;28;20061;-59
2023/07/26 06:22:55;;;;;;;8.85;6.25;;;;;;;16.08;85.00;101087.19;5093314;28;20043;-60
2023/07/26 06:25:20;;;;;;;11.50;6.70;;;;;;;16.14;85.13;101096.00;5093225;28;20027;-59
2023/07/26 06:27:45;;;;;;;10.40;6.63;;;;;;;16.15;84.34;101103.13;5093167;28;20028;-59
2023/07/26 06:30:13;;;;;;;10.50;6.95;;;;;;;16.14;84.76;101101.31;5093176;28;20032;-58
2023/07/26 06:32:39;;;;;;;13.65;6.85;;;;;;;16.08;85.27;101095.19;5093029;28;20366;-59
2023/07/26 06:35:04;;;;;;;13.82;7.45;;;;;;;16.10;85.88;101110.28;5074838;28;20031;-59
2023/07/26 06:37:30;;;;;;;11.48;7.32;;;;;;;16.02;86.19;101117.44;5092870;28;20104;-59
2023/07/26 06:39:55;;;;;;;14.10;7.78;;;;;;;16.03;86.05;101122.75;5093278;28;20090;-59
2023/07/26 06:42:21;;;;;;;15.63;7.50;;;;;;;16.00;86.74;101120.09;5092986;28;20410;-60
2023/07/26 06:44:46;;;;;;;11.45;7.63;;;;;;;16.03;87.26;101122.75;5092896;28;20031;-59
2023/07/26 06:47:11;;;;;;;9.82;6.65;;;;;;;16.07;87.21;101126.28;5092906;28;20382;-59
2023/07/26 06:49:37;;;;;;;11.35;7.38;;;;;;;16.06;88.03;101129.84;5074505;28;20119;-60
2023/07/26 06:52:03;;;;;;;15.07;7.97;;;;;;;16.02;88.45;101131.66;5092755;28;20527;-59
2023/07/26 06:54:30;;;;;;;14.70;8.00;;;;;;;15.99;89.35;101128.13;5092682;28;20035;-58
2023/07/26 06:56:55;;;;;;;13.45;7.85;;;;;;;15.99;88.61;101126.31;5092598;28;20115;-59
2023/07/26 06:59:21;;;;;;;13.40;7.43;;;;;;;16.06;89.44;101134.28;5092624;28;20120;-60
2023/07/26 07:01:46;;;;;;;14.18;8.18;;;;;;;16.02;89.65;101125.44;5092641;28;20378;-59
2023/07/26 07:04:12;;;;;;;14.15;7.75;;;;;;;16.08;89.84;101130.72;5092527;28;20477;-59
2023/07/26 07:06:37;;;;;;;12.50;8.00;;;;;;;16.14;90.19;101138.66;5074903;28;20111;-58
2023/07/26 07:09:04;;;;;;;13.80;8.57;;;;;;;16.19;90.06;101134.19;5074578;28;20032;-59
2023/07/26 07:11:29;;;;;;;13.02;8.15;;;;;;;16.23;90.19;101137.69;5092776;28;20039;-63
2023/07/26 07:13:56;;;;;;;17.27;8.65;;;;;;;16.22;90.64;101136.81;5092697;28;20028;-60
2023/07/26 07:16:22;;;;;;;12.25;8.38;;;;;;;16.27;90.86;101144.78;5092556;28;20080;-60
2023/07/26 07:18:48;;;;;;;12.18;7.97;;;;;;;16.28;90.41;101157.22;5092425;28;20428;-59
2023/07/26 07:21:14;;;;;;;15.52;8.68;;;;;;;16.28;90.62;101158.13;5092826;28;20043;-59
2023/07/26 07:23:39;;;;;;;17.45;9.00;;;;;;;16.24;90.71;101175.03;5092486;28;20482;-59
2023/07/26 07:26:05;;;;;;;16.27;9.23;;;;;;;16.17;90.94;101189.28;5092753;28;20040;-61
2023/07/26 07:28:30;;;;;;;15.63;9.20;;;;;;;15.99;89.63;101176.09;5092690;28;20024;-62
2023/07/26 07:30:55;;;;;;;15.30;8.45;;;;;;;15.83;89.47;101193.06;5092454;28;20111;-61
2023/07/26 07:33:21;;;;;;;13.75;7.45;;;;;;;15.65;88.82;101188.72;5092518;28;20456;-61
2023/07/26 07:35:47;;;;;;;18.10;8.95;;;;;;;15.53;89.77;101178.97;5092601;28;20035;-61
2023/07/26 07:38:12;;;;;;;11.75;8.68;;;;;;;15.47;90.54;101168.34;5066618;28;20128;-60
2023/07/26 07:40:38;;;;;;;17.70;8.75;;;;;;;15.48;91.58;101168.31;5072285;28;20104;-60
2023/07/26 07:43:03;;;;;;;12.82;9.05;;;;;;;15.45;92.19;101178.97;5072037;28;20082;-62
2023/07/26 07:45:29;;;;;;;16.98;9.48;;;;;;;15.47;93.26;101176.34;5072237;28;20032;-60
2023/07/26 07:47:54;;;;;;;13.88;9.40;;;;;;;15.50;94.28;101176.28;5071995;28;20036;-60
2023/07/26 07:50:19;;;;;;;16.40;10.15;;;;;;;15.54;94.55;101180.72;5071905;28;20025;-60
2023/07/26 07:52:45;;;;;;;18.33;10.50;;;;;;;15.56;95.55;101176.28;5072040;28;20437;-61
2023/07/26 07:55:10;;;;;;;15.88;10.00;;;;;;;15.56;96.87;101167.41;5072169;28;20032;-59
2023/07/26 07:57:36;;;;;;;23.25;11.00;;;;;;;15.62;98.34;101170.03;5071960;28;20028;-60
2023/07/26 08:00:02;;;;;;;13.95;10.82;;;;;;;15.74;97.56;101170.91;5072121;28;20066;-60
2023/07/26 08:02:27;;;;;;;18.08;11.02;;;;;;;16.00;98.03;101165.41;5074111;28;20037;-60
2023/07/26 08:04:52;;;;;;;15.73;10.52;;;;;;;16.22;97.77;101167.94;5057667;28;20028;-60
2023/07/26 08:07:18;;;;;;;14.50;9.70;;;;;;;16.55;97.95;101165.91;5075416;28;20186;-60
2023/07/26 08:09:43;;;;;;;15.07;9.93;;;;;;;16.92;95.69;101166.47;5075560;28;20024;-60
2023/07/26 08:12:09;;;;;;;17.95;10.18;;;;;;;17.25;95.25;101163.41;5075359;28;20024;-60
2023/07/26 08:14:34;;;;;;;20.38;10.05;;;;;;;17.50;92.39;101163.13;5075522;28;20032;-60
2023/07/26 08:17:00;;;;;;;15.75;9.45;;;;;;;17.88;91.84;101167.13;5075288;28;20032;-60
2023/07/26 08:19:25;;;;;;;14.50;9.85;;;;;;;18.01;87.66;101166.03;5075197;28;20385;-60
2023/07/26 08:21:51;;;;;;;18.90;9.98;;;;;;;18.22;89.49;101168.38;5075302;28;20025;-59
2023/07/26 08:24:17;;;;;;;13.07;9.00;;;;;;;18.51;87.53;101177.72;5087054;28;20505;-60
2023/07/26 08:26:42;;;;;;;14.98;8.15;;;;;;;18.62;85.45;101165.03;5095138;28;20028;-60
2023/07/26 08:29:10;;;;;;;13.82;8.63;;;;;;;18.84;82.33;101178.06;5077376;28;20024;-58
2023/07/26 08:31:35;;;;;;;13.68;7.97;;;;;;;19.09;82.09;101171.34;5095547;28;20024;-60
2023/07/26 08:34:01;;;;;;;13.45;8.30;;;;;;;19.41;82.00;101169.84;5077485;28;20050;-60
2023/07/26 08:36:26;;;;;;;15.13;7.57;;;;;;;19.63;79.25;101171.19;5094960;28;20339;-59
2023/07/26 08:38:52;;;;;;;11.35;7.60;;;;;;;19.83;78.80;101167.16;5095279;28;20036;-60
2023/07/26 08:41:17;;;;;;;14.70;7.50;;;;;;;19.98;77.55;101173.06;5095424;28;20027;-59
2023/07/26 08:43:46;;;;;;;11.35;7.43;;;;;;;20.18;75.32;101174.44;5095096;28;20028;-60
2023/07/26 08:46:14;;;;;;;11.40;7.85;;;;;;;20.37;75.43;101170.38;5095087;28;20024;-60
2023/07/26 08:48:40;;;;;;;13.90;7.68;;;;;;;20.62;73.65;101164.41;5094749;28;20048;-60
2023/07/26 08:51:06;;;;;;;16.38;7.28;;;;;;;20.82;74.94;101167.47;5095335;28;20020;-59
2023/07/26 08:53:34;;;;;;;11.48;7.60;;;;;;;20.97;71.58;101161.69;5095263;28;20059;-59
2023/07/26 08:55:59;;;;;;;12.55;7.53;;;;;;;21.14;71.90;101166.59;5094771;28;20107;-60
2023/07/26 08:58:25;;;;;;;9.80;6.90;;;;;;;21.34;69.75;101166.06;5094771;28;20063;-60
2023/07/26 09:00:51;;;;;;;11.55;6.68;;;;;;;21.43;69.00;101155.03;5094870;28;20027;-60
2023/07/26 09:03:17;;;;;;;12.98;5.90;;;;;;;21.60;67.34;101142.91;5095056;28;20028;-59
2023/07/26 09:05:45;;;;;;;11.82;5.88;;;;;;;21.85;65.50;101149.31;5095247;28;20076;-60
2023/07/26 09:08:11;;;;;;;9.45;6.40;;;;;;;21.92;66.63;101144.59;5095180;28;20028;-58
2023/07/26 09:10:38;;;;;;;7.97;6.05;;;;;;;21.94;63.54;101149.00;5094695;28;20466;-59
2023/07/26 09:13:11;;;;;;;9.88;5.85;;;;;;;21.88;64.43;101149.19;5093843;28;20039;-60
2023/07/26 09:15:38;;;;;;;10.63;6.13;;;;;;;21.96;63.17;101154.34;5094478;28;20470;-60
2023/07/26 09:18:08;;;;;;;11.07;5.88;;;;;;;21.89;58.88;101144.72;5076514;28;20035;-59
2023/07/26 09:20:34;;;;;;;7.53;5.63;;;;;;;22.15;60.37;101143.91;5094666;28;20032;-59
2023/07/26 09:23:05;;;;;;;9.88;5.72;;;;;;;22.14;62.21;101143.03;5094662;28;20097;-60
2023/07/26 09:25:39;;;;;;;10.70;6.40;;;;;;;21.78;60.19;101142.34;5094577;28;20024;-59
2023/07/26 09:28:06;;;;;;;9.68;5.93;;;;;;;21.57;62.21;101143.00;5094208;28;20028;-60
2023/07/26 09:30:39;;;;;;;9.98;5.85;;;;;;;21.42;63.93;101141.66;5094139;28;20047;-59
2023/07/26 09:33:06;;;;;;;9.45;5.80;;;;;;;21.12;63.32;101146.06;5094180;28;20063;-59
2023/07/26 09:35:43;;;;;;;9.55;6.15;;;;;;;20.82;65.43;101145.13;5093900;28;20038;-59
2023/07/26 09:38:13;;;;;;;9.75;6.00;;;;;;;20.65;64.20;101145.56;5093998;28;20119;-60
2023/07/26 09:40:39;;;;;;;11.15;6.63;;;;;;;20.76;66.67;101141.63;5094204;28;20036;-60
2023/07/26 09:43:04;;;;;;;10.75;6.32;;;;;;;21.18;65.55;101141.38;5093961;28;20028;-59
2023/07/26 09:45:30;;;;;;;7.43;5.30;;;;;;;21.42;59.89;101145.22;5093886;28;20043;-59
2023/07/26 09:48:10;;;;;;;9.25;5.10;;;;;;;21.23;58.36;101133.19;5093857;28;20016;-59
2023/07/26 09:50:37;;;;;;;9.40;4.65;;;;;;;21.03;60.73;101141.84;5093848;28;20024;-59
2023/07/26 09:53:04;;;;;;;8.65;5.10;;;;;;;20.78;61.10;101128.19;5093712;28;20109;-59
2023/07/26 09:55:29;;;;;;;11.43;5.45;;;;;;;20.75;61.40;101152.44;5093772;28;20020;-59
2023/07/26 09:57:56;;;;;;;7.72;5.20;;;;;;;20.60;61.85;101147.44;5093626;28;20020;-59
2023/07/26 10:00:24;;;;;;;8.50;4.93;;;;;;;20.36;61.83;101147.13;5093639;28;20028;-60
2023/07/26 10:02:59;;;;;;;8.02;4.03;;;;;;;20.28;60.28;101154.50;5093631;28;20085;-60
2023/07/26 10:05:26;;;;;;;4.97;3.40;;;;;;;20.14;56.55;101152.16;5093814;28;20118;-59
2023/07/26 10:07:55;;;;;;;4.40;3.15;;;;;;;20.15;54.83;101148.53;5093740;28;20012;-59
2023/07/26 10:10:22;;;;;;;5.22;3.03;;;;;;;20.27;55.05;101140.19;5093502;28;20028;-59
2023/07/26 10:12:52;;;;;;;5.53;3.08;;;;;;;20.68;55.92;101145.44;5093032;28;20024;-59
2023/07/26 10:15:21;;;;;;;6.32;3.10;;;;;;;21.14;52.76;101142.41;5093237;28;20497;-59
2023/07/26 10:17:47;;;;;;;3.65;2.65;;;;;;;21.59;52.26;101144.72;5093498;28;20081;-59
2023/07/26 10:20:14;;;;;;;4.07;3.10;;;;;;;21.98;52.24;101147.09;5093252;28;20028;-59
2023/07/26 10:22:41;;;;;;;6.78;3.53;;;;;;;21.98;52.71;101150.69;5093539;28;20032;-59
2023/07/26 10:25:07;;;;;;;9.50;3.80;;;;;;;21.76;52.76;101149.59;5074636;28;20509;-59
2023/07/26 10:27:34;;;;;;;6.20;3.67;;;;;;;21.46;53.13;101143.34;5092948;28;20024;-58
2023/07/26 10:30:01;;;;;;;8.95;3.90;;;;;;;21.26;54.85;101142.06;5092461;28;20044;-59
2023/07/26 10:32:27;;;;;;;6.00;3.75;;;;;;;21.09;55.73;101140.78;5092948;28;20032;-58
2023/07/26 10:34:57;;;;;;;7.50;4.30;;;;;;;21.01;55.63;101138.28;5093184;28;20249;-59
2023/07/26 10:37:23;;;;;;;7.47;4.20;;;;;;;21.27;57.01;101138.44;5092803;28;20060;-59
2023/07/26 10:39:49;;;;;;;6.85;4.38;;;;;;;21.57;54.64;101132.25;5093221;28;20024;-58
2023/07/26 10:42:24;;;;;;;9.98;4.50;;;;;;;21.94;55.15;101134.69;5092847;28;20488;-58
2023/07/26 10:44:51;;;;;;;7.18;4.38;;;;;;;22.18;54.03;101133.03;5092928;28;20035;-58
2023/07/26 10:47:17;;;;;;;7.97;4.50;;;;;;;22.54;54.92;101128.22;5092846;28;20085;-58
2023/07/26 10:49:46;;;;;;;8.27;4.60;;;;;;;22.88;53.11;101130.63;5092936;28;20036;-58
2023/07/26 10:52:12;;;;;;;8.00;5.00;;;;;;;23.28;53.06;101126.50;5074813;28;20043;-59
2023/07/26 10:54:45;;;;;;;9.75;4.75;;;;;;;23.67;52.25;101118.72;5074799;28;20136;-59
2023/07/26 10:57:27;;;;;;;8.40;4.80;;;;;;;23.90;51.64;101125.03;5092874;28;20020;-58
2023/07/26 11:00:11;;;;;;;8.80;4.85;;;;;;;23.97;51.95;101123.84;5093290;28;20039;-59
2023/07/26 11:02:58;;;;;;;7.53;4.30;;;;;;;23.97;49.77;101126.53;5092731;28;20166;-58
2023/07/26 11:05:24;;;;;;;6.78;4.65;;;;;;;24.02;49.25;101135.31;5092955;28;20047;-58
2023/07/26 11:08:01;;;;;;;9.30;4.82;;;;;;;24.09;50.90;101134.13;5092814;28;20020;-59
2023/07/26 11:10:29;;;;;;;8.15;4.70;;;;;;;24.01;50.79;101133.56;5092971;28;20031;-59
2023/07/26 11:13:18;;;;;;;9.98;4.68;;;;;;;24.14;51.66;101133.94;5092808;28;20032;-58
2023/07/26 11:15:53;;;;;;;6.75;4.60;;;;;;;24.26;50.98;101125.34;5092851;28;20028;-59
2023/07/26 11:18:20;;;;;;;6.93;4.35;;;;;;;24.31;48.38;101119.75;5092607;28;20159;-60
2023/07/26 11:20:48;;;;;;;7.95;4.72;;;;;;;24.63;49.12;101130.09;5092751;28;20020;-59